createdAt,value
2018-03-14T00:02:18.304Z,97402.95
2018-03-14T00:04:45.915Z,97407.29
2018-03-14T00:07:13.551Z,97406.58
2018-03-14T00:09:41.153Z,97413.55
2018-03-14T00:12:08.782Z,97416.09
2018-03-14T00:14:36.485Z,97418.05
2018-03-14T00:17:04.531Z,97415.48
2018-03-14T00:19:32.151Z,97418.23
2018-03-14T00:21:59.762Z,97417.10
2018-03-14T00:24:27.393Z,97418.50
2018-03-14T00:26:55.014Z,97419.16
2018-03-14T00:29:22.648Z,97428.98
2018-03-14T00:31:50.262Z,97425.11
2018-03-14T00:34:18.181Z,97429.15
2018-03-14T00:36:45.868Z,97426.53
2018-03-14T00:39:13.487Z,97428.44
2018-03-14T00:41:41.125Z,97442.50
2018-03-14T00:44:08.809Z,97430.47
2018-03-14T00:46:36.519Z,97434.64
2018-03-14T00:49:04.162Z,97440.72
2018-03-14T00:51:32.018Z,97442.53
2018-03-14T00:53:59.635Z,97445.78
2018-03-14T00:56:27.321Z,97449.34
2018-03-14T00:58:55.037Z,97450.80
2018-03-14T01:01:22.815Z,97453.98
2018-03-14T01:03:50.543Z,97449.36
2018-03-14T01:06:18.235Z,97437.78
2018-03-14T01:08:45.963Z,97441.75
2018-03-14T01:11:13.662Z,97445.70
2018-03-14T01:13:41.347Z,97446.77
2018-03-14T01:16:08.998Z,97448.21
2018-03-14T01:18:36.680Z,97439.95
2018-03-14T01:21:04.392Z,97442.66
2018-03-14T01:23:32.082Z,97443.84
2018-03-14T01:25:59.906Z,97438.63
2018-03-14T01:28:27.515Z,97438.20
2018-03-14T01:30:55.204Z,97444.08
2018-03-14T01:33:22.922Z,97448.07
2018-03-14T01:35:50.539Z,97448.40
2018-03-14T01:38:18.255Z,97452.05
2018-03-14T01:40:45.945Z,97450.66
2018-03-14T01:43:13.767Z,97451.94
2018-03-14T01:45:41.377Z,97452.70
2018-03-14T01:48:09.071Z,97453.48
2018-03-14T01:50:36.774Z,97459.94
2018-03-14T01:53:16.282Z,97461.85
2018-03-14T01:55:43.993Z,97456.63
2018-03-14T01:58:11.675Z,97468.13
2018-03-14T02:00:39.316Z,97463.39
2018-03-14T02:03:06.951Z,97460.43
2018-03-14T02:05:34.644Z,97463.85
2018-03-14T02:08:02.274Z,97464.56
2018-03-14T02:10:29.889Z,97459.19
2018-03-14T02:12:57.520Z,97462.98
2018-03-14T02:15:25.128Z,97461.29
2018-03-14T02:17:52.820Z,97466.15
2018-03-14T02:20:20.453Z,97467.98
2018-03-14T02:22:48.152Z,97459.26
2018-03-14T02:25:15.869Z,97472.63
2018-03-14T02:27:43.571Z,97461.35
2018-03-14T02:30:11.182Z,97469.97
2018-03-14T02:32:38.893Z,97473.16
2018-03-14T02:35:06.675Z,97471.98
2018-03-14T02:37:34.317Z,97477.83
2018-03-14T02:40:01.927Z,97474.64
2018-03-14T02:42:29.645Z,97477.95
2018-03-14T02:44:57.340Z,97472.98
2018-03-14T02:47:24.925Z,97476.30
2018-03-14T02:49:52.532Z,97474.55
2018-03-14T02:52:20.125Z,97477.17
2018-03-14T02:54:47.754Z,97481.99
2018-03-14T02:57:15.344Z,97477.89
2018-03-14T02:59:42.935Z,97480.91
2018-03-14T03:02:10.616Z,97482.65
2018-03-14T03:04:38.296Z,97484.13
2018-03-14T03:07:05.955Z,97482.61
2018-03-14T03:09:33.545Z,97492.08
2018-03-14T03:12:01.212Z,97497.79
2018-03-14T03:14:28.899Z,97495.13
2018-03-14T03:16:56.500Z,97494.98
2018-03-14T03:19:24.196Z,97500.30
2018-03-14T03:21:51.864Z,97499.73
2018-03-14T03:24:19.533Z,97500.31
2018-03-14T03:26:47.224Z,97502.23
2018-03-14T03:29:14.901Z,97510.64
2018-03-14T03:31:42.774Z,97510.42
2018-03-14T03:34:10.446Z,97510.47
2018-03-14T03:36:38.123Z,97512.25
2018-03-14T03:39:05.815Z,97519.66
2018-03-14T03:41:33.405Z,97517.27
2018-03-14T03:44:01.119Z,97525.48
2018-03-14T03:46:28.751Z,97518.15
2018-03-14T03:48:56.423Z,97520.25
2018-03-14T03:51:24.106Z,97521.65
2018-03-14T03:53:51.847Z,97520.20
2018-03-14T03:56:19.519Z,97526.98
2018-03-14T03:58:47.132Z,97530.37
2018-03-14T04:01:14.797Z,97525.25
2018-03-14T04:03:42.453Z,97527.67
2018-03-14T04:06:10.151Z,97531.11
2018-03-14T04:08:37.766Z,97538.05
2018-03-14T04:11:05.477Z,97531.87
2018-03-14T04:13:33.149Z,97531.84
2018-03-14T04:16:00.818Z,97532.08
2018-03-14T04:18:28.491Z,97535.84
2018-03-14T04:20:56.149Z,97531.50
2018-03-14T04:23:23.765Z,97535.38
2018-03-14T04:25:51.453Z,97535.36
2018-03-14T04:28:19.119Z,97538.97
2018-03-14T04:30:46.813Z,97536.41
2018-03-14T04:33:14.429Z,97540.06
2018-03-14T04:35:42.067Z,97544.03
2018-03-14T04:38:09.652Z,97539.52
2018-03-14T04:40:37.316Z,97539.42
2018-03-14T04:43:05.021Z,97538.30
2018-03-14T04:45:32.696Z,97541.95
2018-03-14T04:48:00.408Z,97535.99
2018-03-14T04:50:28.072Z,97543.89
2018-03-14T04:52:55.759Z,97543.79
2018-03-14T04:55:23.460Z,97548.64
2018-03-14T04:57:51.123Z,97560.14
2018-03-14T05:00:18.920Z,97552.12
2018-03-14T05:02:46.596Z,97550.66
2018-03-14T05:05:14.188Z,97553.31
2018-03-14T05:07:41.875Z,97549.95
2018-03-14T05:10:09.548Z,97544.33
2018-03-14T05:12:37.399Z,97547.94
2018-03-14T05:15:05.485Z,97551.75
2018-03-14T05:17:33.158Z,97546.34
2018-03-14T05:20:00.889Z,97548.77
2018-03-14T05:22:28.565Z,97551.48
2018-03-14T05:24:56.364Z,97556.64
2018-03-14T05:27:24.042Z,97559.50
2018-03-14T05:29:51.741Z,97560.26
2018-03-14T05:32:19.373Z,97568.72
2018-03-14T05:34:47.055Z,97562.97
2018-03-14T05:37:14.801Z,97558.98
2018-03-14T05:39:42.395Z,97558.97
2018-03-14T05:42:10.077Z,97562.17
2018-03-14T05:44:37.691Z,97554.63
2018-03-14T05:47:05.301Z,97560.73
2018-03-14T05:49:32.930Z,97559.18
2018-03-14T05:52:00.611Z,97563.13
2018-03-14T05:54:28.297Z,97573.00
2018-03-14T05:56:55.985Z,97569.39
2018-03-14T05:59:23.648Z,97569.30
2018-03-14T06:01:51.451Z,97572.38
2018-03-14T06:04:19.073Z,97576.11
2018-03-14T06:06:46.737Z,97577.63
2018-03-14T06:09:14.714Z,97581.34
2018-03-14T06:11:42.376Z,97582.51
2018-03-14T06:14:10.229Z,97582.48
2018-03-14T06:16:37.823Z,97582.72
2018-03-14T06:19:05.420Z,97589.62
2018-03-14T06:21:33.021Z,97595.15
2018-03-14T06:24:00.621Z,97596.44
2018-03-14T06:26:28.746Z,97601.38
2018-03-14T06:28:56.353Z,97601.83
2018-03-14T06:31:23.973Z,97597.64
2018-03-14T06:33:51.592Z,97602.69
2018-03-14T06:36:19.203Z,97601.08
2018-03-14T06:38:47.491Z,97602.60
2018-03-14T06:41:15.094Z,97606.46
2018-03-14T06:43:42.676Z,97604.92
2018-03-14T06:46:10.284Z,97608.06
2018-03-14T06:48:37.991Z,97607.81
2018-03-14T06:51:05.630Z,97610.56
2018-03-14T06:53:33.232Z,97611.09
2018-03-14T06:56:00.825Z,97613.24
2018-03-14T06:58:40.131Z,97605.59
2018-03-14T07:01:19.628Z,97604.04
2018-03-14T07:03:59.086Z,97608.53
2018-03-14T07:06:26.675Z,97607.45
2018-03-14T07:08:54.289Z,97609.83
2018-03-14T07:11:21.897Z,97612.71
2018-03-14T07:13:49.865Z,97608.89
2018-03-14T07:16:17.460Z,97610.52
2018-03-14T07:18:45.090Z,97607.92
2018-03-14T07:21:12.718Z,97612.34
2018-03-14T07:23:40.387Z,97615.30
2018-03-14T07:26:08.101Z,97612.53
2018-03-14T07:28:35.792Z,97614.34
2018-03-14T07:31:03.598Z,97614.60
2018-03-14T07:33:31.183Z,97616.50
2018-03-14T07:35:58.820Z,97618.27
2018-03-14T07:38:26.448Z,97620.00
2018-03-14T07:40:54.035Z,97626.79
2018-03-14T07:43:21.657Z,97628.06
2018-03-14T07:45:49.272Z,97629.69
2018-03-14T07:48:17.051Z,97635.06
2018-03-14T07:50:48.704Z,97635.86
2018-03-14T07:53:16.675Z,97635.98
2018-03-14T07:55:46.718Z,97638.60
2018-03-14T07:58:14.304Z,97631.58
2018-03-14T08:00:41.929Z,97634.17
2018-03-14T08:03:09.532Z,97642.78
2018-03-14T08:05:37.156Z,97632.38
2018-03-14T08:08:04.750Z,97631.69
2018-03-14T08:10:32.388Z,97634.02
2018-03-14T08:13:01.060Z,97632.25
2018-03-14T08:15:29.017Z,97631.03
2018-03-14T08:17:56.983Z,97628.88
2018-03-14T08:20:24.576Z,97636.23
2018-03-14T08:22:52.243Z,97636.18
2018-03-14T08:25:19.942Z,97634.59
2018-03-14T08:27:47.960Z,97637.69
2018-03-14T08:30:15.552Z,97628.75
2018-03-14T08:32:43.358Z,97634.64
2018-03-14T08:35:10.978Z,97638.95
2018-03-14T08:37:38.571Z,97632.58
2018-03-14T08:40:06.180Z,97629.10
2018-03-14T08:42:33.800Z,97629.73
2018-03-14T08:45:01.459Z,97630.21
2018-03-14T08:47:29.054Z,97635.26
2018-03-14T08:49:56.644Z,97630.23
2018-03-14T08:52:24.260Z,97629.59
2018-03-14T08:54:52.096Z,97628.50
2018-03-14T08:57:20.175Z,97629.86
2018-03-14T08:59:47.935Z,97625.51
2018-03-14T09:02:16.751Z,97629.14
2018-03-14T09:04:44.359Z,97638.63
2018-03-14T09:07:12.386Z,97641.58
2018-03-14T09:09:39.998Z,97640.63
2018-03-14T09:12:07.645Z,97643.98
2018-03-14T09:14:35.341Z,97640.18
2018-03-14T09:17:02.942Z,97634.73
2018-03-14T09:19:31.109Z,97637.28
2018-03-14T09:21:58.879Z,97633.66
2018-03-14T09:24:26.459Z,97632.58
2018-03-14T09:26:54.232Z,97638.16
2018-03-14T09:29:21.816Z,97643.23
2018-03-14T09:31:49.444Z,97640.16
2018-03-14T09:34:17.068Z,97641.56
2018-03-14T09:36:44.720Z,97643.29
2018-03-14T09:39:12.336Z,97641.34
2018-03-14T09:41:39.914Z,97641.23
2018-03-14T09:44:07.621Z,97642.58
2018-03-14T09:46:35.208Z,97639.90
2018-03-14T09:49:03.377Z,97635.08
2018-03-14T09:51:34.124Z,97638.53
2018-03-14T09:54:02.085Z,97637.13
2018-03-14T09:56:29.677Z,97635.80
2018-03-14T09:58:57.273Z,97642.22
2018-03-14T10:01:24.891Z,97639.24
2018-03-14T10:03:52.487Z,97646.82
2018-03-14T10:06:20.459Z,97641.49
2018-03-14T10:08:48.253Z,97639.36
2018-03-14T10:11:15.858Z,97634.66
2018-03-14T10:13:43.496Z,97646.72
2018-03-14T10:16:11.318Z,97642.41
2018-03-14T10:18:39.313Z,97645.06
2018-03-14T10:21:07.184Z,97640.58
2018-03-14T10:23:34.773Z,97636.23
2018-03-14T10:26:02.392Z,97634.50
2018-03-14T10:28:29.977Z,97631.86
2018-03-14T10:30:57.612Z,97634.20
2018-03-14T10:33:25.272Z,97626.92
2018-03-14T10:35:53.136Z,97634.14
2018-03-14T10:38:20.800Z,97633.41
2018-03-14T10:40:48.402Z,97638.92
2018-03-14T10:43:16.047Z,97628.56
2018-03-14T10:45:43.665Z,97624.46
2018-03-14T10:48:11.573Z,97625.01
2018-03-14T10:50:39.635Z,97623.27
2018-03-14T10:53:07.481Z,97621.59
2018-03-14T10:55:35.076Z,97623.25
2018-03-14T10:58:02.677Z,97628.16
2018-03-14T11:00:35.806Z,97625.32
2018-03-14T11:03:03.403Z,97622.09
2018-03-14T11:05:31.103Z,97617.60
2018-03-14T11:07:58.691Z,97616.63
2018-03-14T11:10:28.213Z,97615.75
2018-03-14T11:12:55.812Z,97617.20
2018-03-14T11:15:23.616Z,97604.66
2018-03-14T11:17:51.213Z,97608.59
2018-03-14T11:20:18.972Z,97604.75
2018-03-14T11:22:46.861Z,97611.55
2018-03-14T11:25:14.657Z,97612.21
2018-03-14T11:27:42.670Z,97609.53
2018-03-14T11:30:10.618Z,97614.64
2018-03-14T11:32:38.363Z,97614.24
2018-03-14T11:35:05.959Z,97603.84
2018-03-14T11:37:33.560Z,97605.12
2018-03-14T11:40:01.181Z,97599.34
2018-03-14T11:42:28.781Z,97605.67
2018-03-14T11:44:58.025Z,97605.33
2018-03-14T11:47:26.124Z,97603.84
2018-03-14T11:49:53.713Z,97601.91
2018-03-14T11:52:21.359Z,97596.70
2018-03-14T11:54:49.045Z,97593.97
2018-03-14T11:57:16.973Z,97591.59
2018-03-14T11:59:44.813Z,97590.59
2018-03-14T12:02:12.474Z,97588.42
2018-03-14T12:04:40.864Z,97587.31
2018-03-14T12:07:08.511Z,97582.94
2018-03-14T12:09:36.243Z,97576.34
2018-03-14T12:12:03.894Z,97576.14
2018-03-14T12:14:32.101Z,97576.85
2018-03-14T12:16:59.709Z,97576.92
2018-03-14T12:19:27.326Z,97574.00
2018-03-14T12:21:54.940Z,97561.91
2018-03-14T12:24:22.536Z,97563.02
2018-03-14T12:26:50.456Z,97558.85
2018-03-14T12:29:18.330Z,97549.26
2018-03-14T12:31:45.969Z,97543.30
2018-03-14T12:34:13.930Z,97549.54
2018-03-14T12:36:41.516Z,97550.44
2018-03-14T12:39:09.144Z,97546.95
2018-03-14T12:41:36.735Z,97539.36
2018-03-14T12:44:04.350Z,97542.20
2018-03-14T12:46:31.933Z,97541.20
2018-03-14T12:48:59.564Z,97532.29
2018-03-14T12:51:27.166Z,97529.80
2018-03-14T12:53:54.757Z,97530.45
2018-03-14T12:56:22.617Z,97531.30
2018-03-14T12:58:50.372Z,97518.77
2018-03-14T13:01:18.023Z,97518.27
2018-03-14T13:03:45.611Z,97512.27
2018-03-14T13:06:13.443Z,97515.70
2018-03-14T13:08:41.039Z,97519.99
2018-03-14T13:11:08.673Z,97509.48
2018-03-14T13:13:36.543Z,97513.45
2018-03-14T13:16:04.284Z,97500.72
2018-03-14T13:18:31.900Z,97503.51
2018-03-14T13:20:59.484Z,97508.77
2018-03-14T13:23:27.293Z,97502.60
2018-03-14T13:25:55.483Z,97502.59
2018-03-14T13:28:23.356Z,97495.89
2018-03-14T13:30:50.980Z,97491.24
2018-03-14T13:33:18.582Z,97490.17
2018-03-14T13:35:47.964Z,97491.46
2018-03-14T13:38:15.553Z,97481.33
2018-03-14T13:40:43.284Z,97485.87
2018-03-14T13:43:10.876Z,97481.47
2018-03-14T13:45:38.456Z,97479.33
2018-03-14T13:48:06.091Z,97478.77
2018-03-14T13:50:33.683Z,97474.55
2018-03-14T13:53:01.305Z,97474.41
2018-03-14T13:55:29.194Z,97467.42
2018-03-14T13:57:57.438Z,97465.38
2018-03-14T14:00:25.072Z,97462.59
2018-03-14T14:02:52.672Z,97459.39
2018-03-14T14:05:20.327Z,97453.42
2018-03-14T14:07:47.920Z,97449.70
2018-03-14T14:10:15.546Z,97448.36
2018-03-14T14:12:43.151Z,97443.81
2018-03-14T14:15:11.065Z,97442.43
2018-03-14T14:17:39.058Z,97442.83
2018-03-14T14:20:06.643Z,97448.95
2018-03-14T14:22:34.276Z,97433.20
2018-03-14T14:25:01.924Z,97432.65
2018-03-14T14:27:29.812Z,97435.00
2018-03-14T14:29:57.685Z,97437.34
2018-03-14T14:32:25.540Z,97432.95
2018-03-14T14:34:53.148Z,97426.28
2018-03-14T14:37:22.319Z,97429.19
2018-03-14T14:39:50.476Z,97421.55
2018-03-14T14:42:18.068Z,97417.77
2018-03-14T14:44:45.684Z,97428.47
2018-03-14T14:47:13.272Z,97424.40
2018-03-14T14:49:41.038Z,97421.31
2018-03-14T14:52:08.626Z,97415.80
2018-03-14T14:54:36.248Z,97408.52
2018-03-14T14:57:05.592Z,97406.81
2018-03-14T14:59:33.532Z,97400.42
2018-03-14T15:02:01.153Z,97395.41
2018-03-14T15:04:29.286Z,97388.58
2018-03-14T15:06:57.204Z,97377.30
2018-03-14T15:09:24.811Z,97376.96
2018-03-14T15:11:52.528Z,97379.78
2018-03-14T15:14:20.629Z,97379.92
2018-03-14T15:16:48.593Z,97376.80
2018-03-14T15:19:16.209Z,97373.41
2018-03-14T15:21:43.885Z,97367.42
2018-03-14T15:24:11.660Z,97365.31
2018-03-14T15:26:39.556Z,97361.64
2018-03-14T15:29:07.369Z,97358.45
2018-03-14T15:31:35.051Z,97352.11
2018-03-14T15:34:02.661Z,97349.00
2018-03-14T15:36:30.324Z,97347.65
2018-03-14T15:38:57.893Z,97332.77
2018-03-14T15:41:25.706Z,97333.72
2018-03-14T15:43:53.296Z,97330.94
2018-03-14T15:46:20.900Z,97337.00
2018-03-14T15:48:48.537Z,97335.02
2018-03-14T15:51:16.300Z,97333.95
2018-03-14T15:53:44.157Z,97327.53
2018-03-14T15:56:12.072Z,97329.83
2018-03-14T15:58:40.392Z,97328.32
2018-03-14T16:01:08.041Z,97331.14
2018-03-14T16:03:35.636Z,97328.92
2018-03-14T16:06:03.260Z,97328.33
2018-03-14T16:08:30.850Z,97329.20
2018-03-14T16:10:58.874Z,97332.19
2018-03-14T16:13:26.490Z,97328.55
2018-03-14T16:15:54.139Z,97325.90
2018-03-14T16:18:21.737Z,97326.52
2018-03-14T16:20:49.324Z,97317.78
2018-03-14T16:23:17.000Z,97319.95
2018-03-14T16:25:44.893Z,97311.42
2018-03-14T16:28:12.760Z,97312.63
2018-03-14T16:30:40.349Z,97313.88
2018-03-14T16:33:08.789Z,97318.47
2018-03-14T16:35:36.516Z,97312.86
2018-03-14T16:38:04.106Z,97312.85
2018-03-14T16:40:31.716Z,97313.98
2018-03-14T16:42:59.326Z,97305.53
2018-03-14T16:45:27.316Z,97312.31
2018-03-14T16:47:54.949Z,97313.66
2018-03-14T16:50:22.817Z,97320.38
2018-03-14T16:52:56.169Z,97314.86
2018-03-14T16:55:24.616Z,97316.89
2018-03-14T16:57:52.497Z,97313.66
2018-03-14T17:00:20.308Z,97314.31
2018-03-14T17:02:47.914Z,97310.91
2018-03-14T17:05:15.871Z,97311.62
2018-03-14T17:08:00.980Z,97307.83
2018-03-14T17:10:29.512Z,97305.63
2018-03-14T17:13:04.036Z,97305.63
2018-03-14T17:15:31.688Z,97306.55
2018-03-14T17:17:59.291Z,97315.56
2018-03-14T17:20:26.911Z,97313.28
2018-03-14T17:22:54.918Z,97322.44
2018-03-14T17:25:22.663Z,97313.13
2018-03-14T17:27:50.444Z,97318.73
2018-03-14T17:30:18.074Z,97316.61
2018-03-14T17:32:45.699Z,97320.73
2018-03-14T17:35:13.294Z,97322.53
2018-03-14T17:37:40.920Z,97317.61
2018-03-14T17:40:08.524Z,97321.61
2018-03-14T17:42:36.135Z,97322.28
2018-03-14T17:45:03.727Z,97320.86
2018-03-14T17:47:31.513Z,97312.58
2018-03-14T17:49:59.107Z,97315.79
2018-03-14T17:52:26.704Z,97314.39
2018-03-14T17:54:54.344Z,97323.69
2018-03-14T17:57:22.218Z,97315.29
2018-03-14T17:59:50.262Z,97314.20
2018-03-14T18:02:17.859Z,97313.49
2018-03-14T18:04:45.496Z,97312.94
2018-03-14T18:07:13.093Z,97309.74
2018-03-14T18:09:40.686Z,97309.00
2018-03-14T18:12:08.306Z,97312.29
2018-03-14T18:14:35.922Z,97308.36
2018-03-14T18:17:03.542Z,97308.07
2018-03-14T18:19:31.129Z,97304.33
2018-03-14T18:21:58.748Z,97304.58
2018-03-14T18:24:26.422Z,97303.94
2018-03-14T18:26:54.346Z,97302.59
2018-03-14T18:29:22.313Z,97305.13
2018-03-14T18:31:49.934Z,97299.80
2018-03-14T18:34:17.568Z,97300.09
2018-03-14T18:36:45.180Z,97300.17
2018-03-14T18:39:12.772Z,97298.73
2018-03-14T18:41:40.393Z,97295.04
2018-03-14T18:44:08.378Z,97299.12
2018-03-14T18:46:36.120Z,97289.27
2018-03-14T18:49:03.712Z,97297.81
2018-03-14T18:51:31.362Z,97292.12
2018-03-14T18:53:58.982Z,97291.23
2018-03-14T18:56:26.633Z,97289.98
2018-03-14T18:58:54.244Z,97288.05
2018-03-14T19:01:21.896Z,97284.43
2018-03-14T19:03:49.777Z,97292.95
2018-03-14T19:06:17.378Z,97285.61
2018-03-14T19:08:44.978Z,97285.91
2018-03-14T19:11:12.611Z,97283.80
2018-03-14T19:13:40.209Z,97286.21
2018-03-14T19:16:07.856Z,97283.08
2018-03-14T19:18:35.512Z,97286.54
2018-03-14T19:21:03.107Z,97292.17
2018-03-14T19:23:30.716Z,97283.59
2018-03-14T19:25:58.751Z,97279.94
2018-03-14T19:28:26.368Z,97276.70
2018-03-14T19:30:53.959Z,97276.70
2018-03-14T19:33:21.826Z,97276.25
2018-03-14T19:35:49.415Z,97268.60
2018-03-14T19:38:17.047Z,97268.96
2018-03-14T19:40:44.670Z,97264.92
2018-03-14T19:43:12.272Z,97273.35
2018-03-14T19:45:39.882Z,97270.78
2018-03-14T19:48:07.476Z,97275.08
2018-03-14T19:50:35.092Z,97269.81
2018-03-14T19:53:02.725Z,97264.17
2018-03-14T19:55:30.514Z,97269.67
2018-03-14T19:57:58.107Z,97260.96
2018-03-14T20:00:25.882Z,97262.05
2018-03-14T20:02:53.501Z,97263.08
2018-03-14T20:05:21.092Z,97265.46
2018-03-14T20:07:48.703Z,97267.75
2018-03-14T20:10:16.293Z,97261.34
2018-03-14T20:12:43.903Z,97263.12
2018-03-14T20:15:11.500Z,97260.99
2018-03-14T20:17:39.117Z,97259.75
2018-03-14T20:20:06.714Z,97261.92
2018-03-14T20:22:34.359Z,97263.91
2018-03-14T20:25:01.954Z,97262.10
2018-03-14T20:27:29.564Z,97268.32
2018-03-14T20:29:57.182Z,97266.41
2018-03-14T20:32:24.818Z,97261.11
2018-03-14T20:34:52.449Z,97258.17
2018-03-14T20:37:20.084Z,97258.30
2018-03-14T20:39:47.728Z,97259.63
2018-03-14T20:42:15.323Z,97253.05
2018-03-14T20:44:42.924Z,97248.23
2018-03-14T20:47:10.541Z,97244.92
2018-03-14T20:49:38.147Z,97244.59
2018-03-14T20:52:05.760Z,97247.66
2018-03-14T20:54:33.352Z,97249.94
2018-03-14T20:57:00.984Z,97247.09
2018-03-14T20:59:28.670Z,97245.64
2018-03-14T21:01:56.450Z,97239.79
2018-03-14T21:04:24.061Z,97245.97
2018-03-14T21:06:51.650Z,97244.20
2018-03-14T21:09:19.288Z,97243.84
2018-03-14T21:11:46.888Z,97241.59
2018-03-14T21:14:14.530Z,97231.34
2018-03-14T21:16:42.128Z,97231.66
2018-03-14T21:19:10.086Z,97233.94
2018-03-14T21:21:37.714Z,97231.47
2018-03-14T21:24:06.120Z,97230.64
2018-03-14T21:26:33.828Z,97232.41
2018-03-14T21:29:01.418Z,97230.73
2018-03-14T21:31:29.056Z,97219.14
2018-03-14T21:33:56.659Z,97217.73
2018-03-14T21:36:24.283Z,97219.95
2018-03-14T21:38:51.882Z,97216.91
2018-03-14T21:41:19.489Z,97218.30
2018-03-14T21:43:47.162Z,97213.04
2018-03-14T21:46:14.749Z,97209.09
2018-03-14T21:48:42.399Z,97205.83
2018-03-14T21:51:10.007Z,97200.14
2018-03-14T21:53:37.969Z,97203.80
2018-03-14T21:56:05.555Z,97197.09
2018-03-14T21:58:33.152Z,97197.80
2018-03-14T22:01:00.846Z,97189.25
2018-03-14T22:03:28.567Z,97187.13
2018-03-14T22:05:56.443Z,97184.45
2018-03-14T22:08:24.046Z,97189.14
2018-03-14T22:10:51.678Z,97177.06
2018-03-14T22:13:19.271Z,97174.25
2018-03-14T22:15:46.951Z,97171.21
2018-03-14T22:18:14.577Z,97163.97
2018-03-14T22:20:42.272Z,97167.80
2018-03-14T22:23:09.884Z,97157.29
2018-03-14T22:25:37.579Z,97150.56
2018-03-14T22:28:05.433Z,97155.02
2018-03-14T22:30:33.044Z,97156.05
2018-03-14T22:33:00.643Z,97149.50
2018-03-14T22:35:28.339Z,97147.77
2018-03-14T22:37:56.017Z,97148.28
2018-03-14T22:40:23.631Z,97151.35
2018-03-14T22:42:51.221Z,97147.55
2018-03-14T22:45:19.139Z,97143.48
2018-03-14T22:47:46.745Z,97137.74
2018-03-14T22:50:14.432Z,97144.68
2018-03-14T22:52:42.040Z,97143.94
2018-03-14T22:55:09.660Z,97137.75
2018-03-14T22:57:37.352Z,97142.46
2018-03-14T23:00:04.941Z,97138.91
2018-03-14T23:02:32.533Z,97138.96
2018-03-14T23:05:00.279Z,97134.36
2018-03-14T23:07:27.910Z,97128.77
2018-03-14T23:09:55.651Z,97127.59
2018-03-14T23:12:23.329Z,97123.70
2018-03-14T23:14:50.928Z,97115.39
2018-03-14T23:17:18.548Z,97113.80
2018-03-14T23:19:46.216Z,97111.50
2018-03-14T23:22:13.899Z,97111.13
2018-03-14T23:24:41.576Z,97110.02
2018-03-14T23:27:09.445Z,97098.50
2018-03-14T23:29:37.118Z,97100.45
2018-03-14T23:32:04.699Z,97085.23
2018-03-14T23:34:32.404Z,97091.94
2018-03-14T23:37:00.860Z,97088.02
2018-03-14T23:39:28.562Z,97078.88
2018-03-14T23:41:56.228Z,97072.55
2018-03-14T23:44:24.205Z,97075.52
2018-03-14T23:46:51.800Z,97072.63
2018-03-14T23:49:19.574Z,97067.13
2018-03-14T23:51:48.394Z,97063.20
2018-03-14T23:54:16.078Z,97059.88
2018-03-14T23:56:43.696Z,97060.91
2018-03-14T23:59:11.372Z,97056.30
